createdAt,value
2018-07-17T00:01:21.069Z,22.77
2018-07-17T00:03:50.631Z,22.66
2018-07-17T00:06:19.559Z,22.67
2018-07-17T00:08:48.721Z,22.56
2018-07-17T00:11:17.413Z,22.60
2018-07-17T00:13:48.399Z,22.52
2018-07-17T00:16:17.573Z,22.40
2018-07-17T00:18:46.170Z,22.41
2018-07-17T00:21:15.336Z,22.42
2018-07-17T00:23:43.946Z,22.38
2018-07-17T00:26:12.580Z,22.26
2018-07-17T00:28:41.125Z,22.27
2018-07-17T00:31:09.922Z,22.16
2018-07-17T00:33:38.588Z,22.11
2018-07-17T00:36:07.827Z,22.00
2018-07-17T00:38:36.416Z,21.86
2018-07-17T00:41:05.007Z,21.79
2018-07-17T00:43:33.625Z,21.89
2018-07-17T00:46:02.328Z,21.79
2018-07-17T00:48:30.972Z,21.87
2018-07-17T00:50:59.625Z,21.94
2018-07-17T00:53:28.280Z,21.90
2018-07-17T00:55:57.060Z,21.76
2018-07-17T00:58:25.832Z,21.70
2018-07-17T01:00:53.508Z,21.63
2018-07-17T01:03:27.174Z,21.69
2018-07-17T01:06:00.848Z,21.75
2018-07-17T01:08:34.722Z,21.70
2018-07-17T01:11:08.359Z,21.74
2018-07-17T01:13:44.470Z,21.75
2018-07-17T01:16:13.165Z,21.73
2018-07-17T01:18:41.936Z,21.69
2018-07-17T01:21:10.537Z,21.72
2018-07-17T01:23:39.252Z,21.61
2018-07-17T01:26:07.998Z,21.66
2018-07-17T01:28:36.886Z,21.65
2018-07-17T01:31:05.815Z,21.63
2018-07-17T01:33:34.475Z,21.52
2018-07-17T01:36:03.295Z,21.39
2018-07-17T01:38:32.019Z,21.29
2018-07-17T01:41:00.488Z,21.15
2018-07-17T01:43:29.172Z,21.18
2018-07-17T01:45:57.889Z,21.27
2018-07-17T01:48:26.619Z,21.19
2018-07-17T01:50:55.201Z,21.22
2018-07-17T01:53:23.841Z,21.16
2018-07-17T01:55:52.593Z,21.04
2018-07-17T01:58:21.275Z,21.01
2018-07-17T02:00:50.042Z,21.08
2018-07-17T02:03:19.354Z,21.16
2018-07-17T02:05:47.956Z,21.19
2018-07-17T02:08:16.798Z,21.12
2018-07-17T02:10:45.373Z,21.17
2018-07-17T02:13:14.286Z,21.19
2018-07-17T02:15:44.104Z,21.20
2018-07-17T02:18:12.943Z,21.24
2018-07-17T02:20:41.595Z,21.40
2018-07-17T02:23:10.319Z,21.44
2018-07-17T02:25:39.143Z,21.32
2018-07-17T02:28:07.882Z,21.26
2018-07-17T02:30:36.685Z,21.29
2018-07-17T02:33:05.656Z,21.26
2018-07-17T02:35:34.460Z,21.16
2018-07-17T02:38:03.209Z,21.15
2018-07-17T02:40:32.041Z,21.11
2018-07-17T02:43:00.764Z,21.04
2018-07-17T02:45:29.459Z,20.97
2018-07-17T02:47:58.060Z,20.86
2018-07-17T02:50:26.628Z,20.88
2018-07-17T02:52:55.478Z,20.83
2018-07-17T02:55:24.094Z,20.85
2018-07-17T02:57:52.783Z,20.77
2018-07-17T03:00:21.503Z,20.71
2018-07-17T03:02:50.240Z,20.71
2018-07-17T03:05:19.414Z,20.67
2018-07-17T03:07:49.006Z,20.55
2018-07-17T03:10:17.639Z,20.60
2018-07-17T03:12:48.282Z,20.56
2018-07-17T03:15:17.166Z,20.49
2018-07-17T03:17:46.181Z,20.56
2018-07-17T03:20:15.005Z,20.52
2018-07-17T03:22:43.813Z,20.49
2018-07-17T03:25:12.630Z,20.35
2018-07-17T03:27:41.611Z,20.31
2018-07-17T03:30:10.302Z,20.34
2018-07-17T03:32:39.153Z,20.44
2018-07-17T03:35:08.374Z,20.27
2018-07-17T03:37:37.099Z,20.25
2018-07-17T03:40:06.055Z,20.23
2018-07-17T03:42:34.686Z,20.18
2018-07-17T03:45:03.465Z,20.15
2018-07-17T03:47:32.148Z,20.11
2018-07-17T03:50:02.441Z,20.34
2018-07-17T03:52:31.466Z,20.38
2018-07-17T03:55:00.185Z,20.38
2018-07-17T03:57:29.474Z,20.47
2018-07-17T03:59:58.344Z,20.46
2018-07-17T04:02:27.181Z,20.46
2018-07-17T04:04:56.145Z,20.49
2018-07-17T04:07:24.898Z,20.52
2018-07-17T04:09:53.607Z,20.47
2018-07-17T04:12:22.259Z,20.58
2018-07-17T04:14:50.844Z,20.53
2018-07-17T04:17:19.600Z,20.60
2018-07-17T04:19:50.754Z,20.54
2018-07-17T04:22:19.882Z,20.50
2018-07-17T04:24:48.522Z,20.52
2018-07-17T04:27:17.432Z,20.55
2018-07-17T04:29:46.292Z,20.59
2018-07-17T04:32:15.623Z,20.66
2018-07-17T04:34:44.529Z,20.86
2018-07-17T04:37:13.251Z,21.00
2018-07-17T04:39:41.829Z,21.21
2018-07-17T04:42:10.541Z,21.31
2018-07-17T04:44:39.250Z,21.36
2018-07-17T04:47:07.843Z,21.51
2018-07-17T04:49:36.573Z,21.54
2018-07-17T04:52:05.375Z,21.66
2018-07-17T04:54:33.990Z,21.66
2018-07-17T04:57:02.587Z,21.62
2018-07-17T04:59:31.247Z,21.61
2018-07-17T05:01:59.864Z,21.57
2018-07-17T05:04:28.716Z,21.65
2018-07-17T05:06:57.415Z,21.69
2018-07-17T05:09:26.120Z,21.81
2018-07-17T05:11:55.102Z,21.84
2018-07-17T05:14:24.716Z,21.95
2018-07-17T05:16:53.401Z,22.02
2018-07-17T05:19:22.138Z,22.09
2018-07-17T05:21:50.908Z,22.20
2018-07-17T05:24:19.687Z,22.26
2018-07-17T05:26:48.323Z,22.40
2018-07-17T05:29:16.966Z,22.61
2018-07-17T05:31:45.664Z,22.79
2018-07-17T05:34:14.406Z,23.00
2018-07-17T05:36:43.088Z,23.21
2018-07-17T05:39:11.787Z,23.54
2018-07-17T05:41:40.372Z,23.66
2018-07-17T05:44:09.044Z,23.79
2018-07-17T05:46:37.800Z,23.88
2018-07-17T05:49:06.613Z,23.91
2018-07-17T05:51:35.307Z,23.60
2018-07-17T05:54:04.209Z,23.91
2018-07-17T05:56:33.175Z,23.98
2018-07-17T05:59:01.875Z,24.11
2018-07-17T06:01:30.454Z,24.29
2018-07-17T06:03:59.142Z,24.44
2018-07-17T06:06:27.823Z,24.47
2018-07-17T06:08:56.546Z,24.40
2018-07-17T06:11:25.308Z,24.40
2018-07-17T06:13:54.172Z,24.51
2018-07-17T06:16:22.962Z,24.42
2018-07-17T06:18:51.809Z,24.59
2018-07-17T06:21:20.411Z,24.63
2018-07-17T06:23:49.068Z,24.81
2018-07-17T06:26:17.605Z,24.92
2018-07-17T06:28:46.386Z,24.92
2018-07-17T06:31:15.047Z,25.15
2018-07-17T06:33:43.760Z,25.17
2018-07-17T06:36:12.518Z,25.28
2018-07-17T06:38:41.121Z,25.59
2018-07-17T06:41:09.723Z,25.87
2018-07-17T06:43:38.468Z,25.99
2018-07-17T06:46:07.091Z,25.97
2018-07-17T06:48:35.804Z,26.06
2018-07-17T06:51:04.471Z,26.05
2018-07-17T06:53:33.132Z,25.94
2018-07-17T06:56:01.987Z,26.01
2018-07-17T06:58:30.712Z,26.03
2018-07-17T07:00:59.446Z,26.17
2018-07-17T07:03:28.253Z,26.38
2018-07-17T07:05:56.947Z,26.53
2018-07-17T07:08:25.565Z,26.68
2018-07-17T07:10:54.240Z,26.76
2018-07-17T07:13:22.865Z,26.90
2018-07-17T07:15:51.496Z,26.94
2018-07-17T07:18:20.281Z,26.86
2018-07-17T07:20:49.029Z,26.81
2018-07-17T07:23:17.775Z,26.99
2018-07-17T07:25:46.516Z,27.27
2018-07-17T07:28:15.144Z,27.45
2018-07-17T07:30:43.702Z,27.65
2018-07-17T07:33:12.608Z,27.78
2018-07-17T07:35:41.243Z,27.79
2018-07-17T07:38:09.942Z,28.04
2018-07-17T07:40:38.627Z,28.20
2018-07-17T07:43:07.312Z,28.30
2018-07-17T07:45:35.877Z,28.55
2018-07-17T07:48:04.482Z,28.53
2018-07-17T07:50:33.096Z,28.55
2018-07-17T07:53:01.957Z,28.63
2018-07-17T07:55:30.728Z,28.85
2018-07-17T07:57:59.473Z,28.85
2018-07-17T08:00:28.249Z,28.96
2018-07-17T08:02:57.066Z,29.05
2018-07-17T08:05:25.838Z,29.00
2018-07-17T08:07:54.778Z,29.32
2018-07-17T08:10:23.638Z,29.53
2018-07-17T08:12:52.860Z,29.47
2018-07-17T08:15:21.756Z,29.66
2018-07-17T08:17:50.496Z,29.89
2018-07-17T08:20:19.269Z,29.88
2018-07-17T08:22:47.980Z,29.96
2018-07-17T08:25:16.819Z,30.12
2018-07-17T08:27:45.753Z,30.36
2018-07-17T08:30:14.823Z,30.47
2018-07-17T08:32:43.899Z,30.48
2018-07-17T08:35:12.879Z,30.53
2018-07-17T08:37:41.491Z,30.46
2018-07-17T08:40:10.192Z,30.38
2018-07-17T08:42:39.012Z,30.29
2018-07-17T08:45:07.639Z,30.36
2018-07-17T08:47:36.319Z,30.35
2018-07-17T08:50:05.036Z,30.75
2018-07-17T08:52:33.896Z,30.97
2018-07-17T08:55:05.216Z,31.03
2018-07-17T08:57:33.903Z,31.14
2018-07-17T09:00:08.151Z,31.16
2018-07-17T09:02:36.724Z,31.27
2018-07-17T09:05:05.822Z,31.46
2018-07-17T09:07:38.157Z,31.37
2018-07-17T09:10:09.107Z,31.47
2018-07-17T09:12:37.875Z,31.55
2018-07-17T09:15:06.678Z,31.27
2018-07-17T09:17:35.457Z,31.65
2018-07-17T09:20:04.339Z,31.69
2018-07-17T09:22:34.244Z,31.89
2018-07-17T09:25:04.187Z,31.86
2018-07-17T09:27:33.005Z,31.64
2018-07-17T09:30:01.605Z,31.83
2018-07-17T09:32:30.228Z,31.85
2018-07-17T09:34:58.950Z,31.61
2018-07-17T09:37:27.568Z,31.58
2018-07-17T09:39:56.192Z,31.65
2018-07-17T09:42:25.569Z,32.00
2018-07-17T09:44:54.955Z,32.20
2018-07-17T09:47:23.622Z,32.53
2018-07-17T09:49:52.685Z,32.05
2018-07-17T09:52:21.445Z,32.35
2018-07-17T09:54:50.158Z,32.64
2018-07-17T09:57:19.151Z,32.79
2018-07-17T09:59:50.925Z,33.08
2018-07-17T10:02:24.698Z,33.36
2018-07-17T10:04:53.428Z,33.52
2018-07-17T10:07:22.198Z,33.62
2018-07-17T10:09:50.744Z,33.95
2018-07-17T10:12:19.344Z,34.29
2018-07-17T10:14:48.091Z,34.47
2018-07-17T10:17:16.717Z,34.64
2018-07-17T10:19:45.311Z,34.43
2018-07-17T10:22:13.996Z,34.66
2018-07-17T10:24:42.766Z,34.66
2018-07-17T10:27:11.474Z,34.73
2018-07-17T10:29:40.103Z,34.88
2018-07-17T10:32:08.918Z,35.02
2018-07-17T10:34:37.554Z,35.39
2018-07-17T10:37:06.464Z,35.63
2018-07-17T10:39:35.093Z,35.79
2018-07-17T10:42:03.753Z,34.94
2018-07-17T10:44:32.549Z,34.96
2018-07-17T10:47:01.146Z,34.96
2018-07-17T10:49:29.726Z,34.73
2018-07-17T10:51:58.330Z,34.18
2018-07-17T10:54:27.002Z,34.44
2018-07-17T10:56:55.696Z,34.28
2018-07-17T10:59:24.362Z,34.46
2018-07-17T11:01:53.433Z,34.52
2018-07-17T11:04:22.057Z,34.54
2018-07-17T11:06:50.824Z,35.08
2018-07-17T11:09:19.499Z,35.31
2018-07-17T11:11:48.165Z,35.39
2018-07-17T11:14:16.760Z,35.13
2018-07-17T11:16:45.447Z,35.35
2018-07-17T11:19:13.991Z,35.80
2018-07-17T11:21:42.643Z,36.05
2018-07-17T11:24:11.265Z,35.72
2018-07-17T11:26:40.008Z,36.21
2018-07-17T11:29:08.659Z,36.30
2018-07-17T11:31:37.224Z,36.46
2018-07-17T11:34:05.892Z,36.70
2018-07-17T11:36:34.776Z,36.49
2018-07-17T11:39:03.845Z,35.67
2018-07-17T11:41:32.665Z,35.44
2018-07-17T11:44:01.362Z,35.84
2018-07-17T11:46:29.968Z,36.05
2018-07-17T11:48:58.601Z,36.41
2018-07-17T11:51:27.345Z,36.22
2018-07-17T11:53:56.013Z,36.12
2018-07-17T11:56:24.687Z,36.03
2018-07-17T11:58:53.272Z,36.65
2018-07-17T12:01:21.905Z,37.52
2018-07-17T12:03:50.560Z,38.09
2018-07-17T12:06:20.219Z,39.40
2018-07-17T12:08:48.798Z,39.34
2018-07-17T12:11:18.972Z,39.60
2018-07-17T12:13:47.606Z,40.48
2018-07-17T12:17:54.692Z,41.65
2018-07-17T12:20:25.065Z,40.43
2018-07-17T12:22:53.460Z,38.52
2018-07-17T12:25:22.090Z,37.90
2018-07-17T12:27:50.732Z,39.82
2018-07-17T12:30:19.366Z,42.57
2018-07-17T12:32:48.079Z,44.53
2018-07-17T12:35:16.811Z,42.62
2018-07-17T12:37:45.575Z,40.04
2018-07-17T12:40:14.214Z,39.03
2018-07-17T12:42:42.984Z,38.91
2018-07-17T12:45:11.631Z,39.60
2018-07-17T12:47:40.333Z,39.54
2018-07-17T12:50:09.199Z,38.16
2018-07-17T12:52:37.878Z,36.94
2018-07-17T12:55:06.777Z,36.61
2018-07-17T12:57:35.676Z,36.60
2018-07-17T13:00:04.447Z,36.73
2018-07-17T13:02:33.028Z,36.95
2018-07-17T13:05:01.827Z,36.92
2018-07-17T13:07:30.724Z,36.96
2018-07-17T13:09:59.508Z,36.97
2018-07-17T13:12:28.156Z,37.26
2018-07-17T13:14:56.950Z,37.57
2018-07-17T13:17:25.510Z,37.66
2018-07-17T13:19:54.543Z,37.69
2018-07-17T13:22:23.486Z,37.59
2018-07-17T13:24:52.332Z,37.06
2018-07-17T13:27:21.035Z,36.77
2018-07-17T13:29:49.596Z,36.29
2018-07-17T13:32:18.344Z,34.39
2018-07-17T13:34:47.406Z,33.27
2018-07-17T13:37:16.263Z,32.73
2018-07-17T13:39:44.957Z,31.81
2018-07-17T13:42:13.593Z,31.56
2018-07-17T13:44:42.533Z,31.55
2018-07-17T13:47:11.031Z,31.97
2018-07-17T13:49:41.467Z,35.05
2018-07-17T13:52:10.178Z,39.18
2018-07-17T13:54:41.071Z,43.07
2018-07-17T13:57:11.367Z,45.86
2018-07-17T13:59:42.255Z,45.65
2018-07-17T14:02:11.199Z,44.25
2018-07-17T14:04:40.162Z,44.55
2018-07-17T14:07:08.954Z,44.78
2018-07-17T14:09:37.753Z,45.70
2018-07-17T14:12:06.678Z,45.20
2018-07-17T14:14:36.474Z,45.36
2018-07-17T14:17:06.744Z,46.12
2018-07-17T14:19:35.802Z,45.77
2018-07-17T14:22:04.815Z,44.64
2018-07-17T14:24:34.016Z,43.64
2018-07-17T14:27:04.117Z,43.73
2018-07-17T14:29:35.870Z,45.25
2018-07-17T14:32:05.718Z,47.79
2018-07-17T14:34:34.658Z,47.25
2018-07-17T14:37:03.752Z,46.21
2018-07-17T14:39:32.523Z,44.26
2018-07-17T14:42:01.386Z,44.78
2018-07-17T14:44:30.062Z,43.78
2018-07-17T14:46:58.787Z,41.18
2018-07-17T14:49:28.265Z,39.27
2018-07-17T14:51:57.008Z,37.74
2018-07-17T14:54:25.932Z,36.50
2018-07-17T14:56:54.973Z,36.09
2018-07-17T14:59:24.056Z,36.10
2018-07-17T15:01:52.796Z,36.25
2018-07-17T15:04:21.580Z,35.99
2018-07-17T15:06:50.267Z,35.39
2018-07-17T15:09:19.067Z,34.53
2018-07-17T15:11:48.338Z,34.27
2018-07-17T15:14:17.148Z,34.10
2018-07-17T15:16:46.058Z,34.04
2018-07-17T15:19:14.716Z,33.98
2018-07-17T15:21:43.446Z,33.61
2018-07-17T15:24:12.269Z,33.69
2018-07-17T15:26:40.937Z,33.40
2018-07-17T15:29:09.720Z,33.46
2018-07-17T15:31:38.512Z,33.53
2018-07-17T15:34:07.355Z,33.69
2018-07-17T15:36:36.558Z,34.21
2018-07-17T15:39:08.075Z,34.78
2018-07-17T15:41:36.980Z,36.13
2018-07-17T15:44:05.915Z,36.88
2018-07-17T15:46:34.836Z,38.38
2018-07-17T15:49:03.564Z,41.19
2018-07-17T15:51:32.265Z,42.91
2018-07-17T15:54:01.256Z,44.33
2018-07-17T15:56:29.816Z,46.07
2018-07-17T15:58:58.505Z,47.69
2018-07-17T16:01:27.142Z,48.81
2018-07-17T16:03:55.833Z,49.04
2018-07-17T16:06:24.493Z,49.48
2018-07-17T16:08:53.236Z,49.93
2018-07-17T16:11:21.818Z,49.43
2018-07-17T16:13:50.596Z,48.99
2018-07-17T16:16:19.140Z,48.66
2018-07-17T16:18:47.693Z,48.12
2018-07-17T16:21:16.495Z,47.30
2018-07-17T16:23:45.060Z,47.79
2018-07-17T16:26:13.900Z,48.47
2018-07-17T16:28:42.627Z,49.25
2018-07-17T16:31:11.226Z,48.44
2018-07-17T16:33:39.977Z,47.20
2018-07-17T16:36:08.737Z,46.18
2018-07-17T16:38:37.449Z,46.08
2018-07-17T16:41:06.264Z,45.87
2018-07-17T16:43:34.977Z,46.54
2018-07-17T16:46:03.644Z,47.25
2018-07-17T16:48:32.441Z,47.77
2018-07-17T16:51:01.143Z,47.01
2018-07-17T16:53:29.942Z,47.45
2018-07-17T16:55:58.829Z,47.67
2018-07-17T16:58:27.416Z,48.26
2018-07-17T17:00:56.129Z,48.73
2018-07-17T17:03:24.917Z,48.08
2018-07-17T17:05:53.571Z,48.11
2018-07-17T17:08:22.305Z,47.35
2018-07-17T17:10:50.957Z,47.32
2018-07-17T17:13:19.763Z,47.28
2018-07-17T17:15:49.593Z,46.81
2018-07-17T17:18:18.396Z,46.44
2018-07-17T17:20:47.079Z,46.04
2018-07-17T17:23:15.887Z,45.41
2018-07-17T17:25:44.835Z,45.69
2018-07-17T17:28:13.547Z,45.24
2018-07-17T17:30:42.434Z,44.58
2018-07-17T17:33:11.730Z,44.32
2018-07-17T17:35:40.603Z,43.41
2018-07-17T17:38:09.368Z,43.38
2018-07-17T17:40:38.277Z,43.30
2018-07-17T17:43:07.065Z,43.09
2018-07-17T17:45:35.914Z,42.65
2018-07-17T17:48:04.748Z,42.34
2018-07-17T17:50:33.525Z,42.13
2018-07-17T17:53:02.404Z,41.57
2018-07-17T17:55:31.041Z,41.31
2018-07-17T17:57:59.799Z,40.80
2018-07-17T18:00:29.536Z,40.00
2018-07-17T18:03:02.597Z,39.59
2018-07-17T18:05:30.968Z,38.94
2018-07-17T18:07:59.394Z,37.83
2018-07-17T18:10:27.634Z,36.76
2018-07-17T18:12:56.559Z,35.93
2018-07-17T18:15:26.944Z,35.08
2018-07-17T18:17:56.295Z,34.64
2018-07-17T18:20:24.712Z,34.06
2018-07-17T18:22:53.087Z,33.35
2018-07-17T18:25:21.618Z,32.88
2018-07-17T18:27:50.139Z,32.74
2018-07-17T18:30:18.582Z,32.62
2018-07-17T18:32:46.919Z,32.53
2018-07-17T18:35:15.324Z,32.39
2018-07-17T18:37:43.697Z,32.39
2018-07-17T18:40:12.270Z,32.36
2018-07-17T18:42:40.594Z,32.27
2018-07-17T18:45:15.796Z,32.14
2018-07-17T18:47:44.158Z,31.92
2018-07-17T18:50:12.864Z,31.68
2018-07-17T18:52:40.851Z,31.40
2018-07-17T18:55:09.145Z,31.27
2018-07-17T18:57:37.458Z,30.77
2018-07-17T19:00:06.267Z,30.62
2018-07-17T19:02:34.689Z,30.39
2018-07-17T19:05:03.058Z,30.12
2018-07-17T19:07:31.726Z,29.69
2018-07-17T19:10:00.257Z,29.38
2018-07-17T19:12:28.599Z,28.67
2018-07-17T19:14:57.763Z,29.01
2018-07-17T19:17:26.029Z,28.71
2018-07-17T19:19:54.479Z,28.11
2018-07-17T19:22:23.450Z,28.16
2018-07-17T19:24:51.867Z,28.09
2018-07-17T19:27:20.470Z,27.93
2018-07-17T19:29:49.654Z,27.72
2018-07-17T19:32:18.248Z,27.56
2018-07-17T19:34:47.854Z,27.38
2018-07-17T19:37:16.229Z,27.26
2018-07-17T19:39:44.731Z,27.25
2018-07-17T19:42:13.090Z,27.30
2018-07-17T19:44:41.608Z,27.09
2018-07-17T19:47:10.382Z,26.89
2018-07-17T19:49:38.818Z,26.79
2018-07-17T19:52:07.355Z,26.66
2018-07-17T19:54:35.710Z,26.67
2018-07-17T19:57:04.174Z,26.65
2018-07-17T19:59:32.616Z,26.57
2018-07-17T20:02:01.105Z,26.60
2018-07-17T20:04:29.504Z,26.44
2018-07-17T20:06:57.915Z,26.42
2018-07-17T20:09:26.369Z,26.46
2018-07-17T20:11:54.895Z,26.48
2018-07-17T20:14:23.284Z,26.43
2018-07-17T20:16:51.779Z,26.38
2018-07-17T20:19:20.146Z,26.28
2018-07-17T20:21:48.758Z,26.16
2018-07-17T20:24:17.357Z,26.06
2018-07-17T20:26:45.795Z,26.00
2018-07-17T20:29:14.127Z,25.98
2018-07-17T20:31:42.535Z,25.97
2018-07-17T20:34:10.891Z,25.94
2018-07-17T20:36:41.414Z,25.91
2018-07-17T20:39:19.518Z,26.00
2018-07-17T20:41:48.178Z,26.09
2018-07-17T20:44:16.880Z,26.11
2018-07-17T20:46:45.516Z,26.06
2018-07-17T20:49:13.815Z,26.09
2018-07-17T20:51:42.304Z,26.17
2018-07-17T20:54:11.351Z,26.26
2018-07-17T20:56:39.781Z,26.25
2018-07-17T20:59:08.119Z,26.24
2018-07-17T21:01:36.578Z,26.06
2018-07-17T21:04:05.061Z,25.81
2018-07-17T21:06:33.424Z,25.58
2018-07-17T21:09:01.758Z,25.33
2018-07-17T21:11:30.954Z,25.37
2018-07-17T21:14:00.216Z,25.40
2018-07-17T21:16:29.007Z,25.38
2018-07-17T21:18:57.336Z,25.45
2018-07-17T21:21:25.646Z,25.39
2018-07-17T21:23:53.911Z,25.47
2018-07-17T21:26:22.223Z,25.50
2018-07-17T21:28:50.774Z,25.51
2018-07-17T21:31:20.028Z,25.61
2018-07-17T21:33:48.412Z,25.72
2018-07-17T21:36:16.680Z,25.79
2018-07-17T21:38:46.943Z,25.75
2018-07-17T21:41:15.438Z,25.69
2018-07-17T21:43:48.552Z,25.74
2018-07-17T21:46:21.302Z,25.73
2018-07-17T21:48:50.524Z,25.67
2018-07-17T21:51:19.715Z,25.66
2018-07-17T21:53:48.741Z,25.64
2018-07-17T21:56:17.200Z,25.65
2018-07-17T21:58:45.740Z,25.80
2018-07-17T22:01:15.067Z,25.81
2018-07-17T22:03:45.350Z,25.79
2018-07-17T22:06:13.626Z,25.84
2018-07-17T22:08:42.204Z,25.83
2018-07-17T22:11:10.768Z,25.98
2018-07-17T22:13:39.001Z,26.13
2018-07-17T22:16:07.376Z,26.13
2018-07-17T22:18:35.769Z,26.16
2018-07-17T22:21:04.050Z,26.22
2018-07-17T22:23:32.476Z,26.35
2018-07-17T22:26:01.140Z,26.43
2018-07-17T22:28:29.598Z,26.47
2018-07-17T22:30:57.883Z,26.46
2018-07-17T22:33:26.182Z,26.48
2018-07-17T22:35:54.507Z,26.56
2018-07-17T22:38:22.846Z,26.66
2018-07-17T22:40:51.172Z,26.67
2018-07-17T22:43:19.538Z,26.64
2018-07-17T22:45:47.786Z,26.52
2018-07-17T22:48:16.113Z,26.48
2018-07-17T22:50:44.416Z,26.45
2018-07-17T22:53:12.773Z,26.24
2018-07-17T22:55:41.050Z,26.26
2018-07-17T22:58:09.419Z,26.18
2018-07-17T23:00:37.760Z,26.16
2018-07-17T23:03:06.677Z,26.11
2018-07-17T23:05:35.008Z,26.02
2018-07-17T23:08:03.301Z,26.06
2018-07-17T23:10:31.609Z,26.02
2018-07-17T23:12:59.993Z,25.98
2018-07-17T23:15:28.318Z,25.91
2018-07-17T23:17:56.608Z,25.85
2018-07-17T23:20:24.918Z,25.69
2018-07-17T23:22:59.387Z,25.53
2018-07-17T23:25:28.960Z,25.45
2018-07-17T23:27:58.056Z,25.37
2018-07-17T23:30:26.381Z,25.25
2018-07-17T23:32:54.770Z,25.12
2018-07-17T23:35:24.208Z,25.18
2018-07-17T23:37:52.989Z,25.23
2018-07-17T23:40:21.847Z,25.20
2018-07-17T23:42:50.263Z,25.17
2018-07-17T23:45:18.949Z,25.11
2018-07-17T23:47:47.990Z,25.11
2018-07-17T23:50:16.233Z,25.04
2018-07-17T23:52:44.625Z,25.12
2018-07-17T23:55:13.059Z,25.12
2018-07-17T23:57:41.287Z,25.18
